| time (UTC) | temp F | wind direction | speed MPH | gust MPH | rain 1hr in | rain 24hr in | rain mn in | humidity % | barometer mb |
| 20260504150703 | 65 | 125 | 2.0 | 6.0 | 0.00 | 0.00 | 0.00 | 44 | 1003.6 |
| 20260504150157 | 65 | 222 | 2.0 | 6.0 | 0.00 | 0.00 | 0.00 | 45 | 1003.6 |
| 20260504141115 | 62 | 117 | 1.0 | 4.0 | 0.00 | 0.00 | 0.00 | 54 | 1003.6 |
| 20260504140613 | 61 | 196 | 1.0 | 4.0 | 0.00 | 0.00 | 0.00 | 51 | 1003.6 |
| 20260504140345 | 61 | 196 | 1.0 | 4.0 | 0.00 | 0.00 | 0.00 | 49 | 1003.7 |
| 20260504130605 | 56 | 211 | 2.0 | 5.0 | 0.00 | 0.00 | 0.00 | 61 | 1004.0 |
| 20260504130105 | 56 | 211 | 1.0 | 5.0 | 0.00 | 0.00 | 0.00 | 58 | 1004.2 |
| 20260504110529 | 46 | 79 | 0.0 | 0.0 | 0.00 | 0.00 | 0.00 | 84 | 1004.7 |
| 20260504100415 | 46 | 242 | 0.0 | 0.0 | 0.00 | 0.00 | 0.00 | 84 | 1004.5 |
| 20260504081709 | 46 | 242 | 0.0 | 0.0 | 0.00 | 0.00 | 0.00 | 84 | 1004.9 |
| 20260504081205 | 46 | 242 | 0.0 | 0.0 | 0.00 | 0.00 | 0.00 | 84 | 1004.8 |
| 20260504080657 | 46 | 242 | 0.0 | 0.0 | 0.00 | 0.00 | 0.00 | 84 | 1004.9 |
| 20260504080152 | 46 | 242 | 0.0 | 0.0 | 0.00 | 0.00 | 0.00 | 84 | 1004.7 |
| 20260504050511 | 42 | 244 | 0.0 | 0.0 | 0.00 | 0.00 | 0.00 | 81 | 1005.4 |
| 20260504050012 | 42 | 244 | 0.0 | 0.0 | 0.00 | 0.00 | 0.00 | 80 | 1005.5 |
| 20260504045511 | 42 | 244 | 0.0 | 0.0 | 0.00 | 0.00 | 0.00 | 80 | 1005.4 |
| 20260504045010 | 43 | 244 | 0.0 | 0.0 | 0.00 | 0.00 | 0.00 | 80 | 1005.4 |
| 20260504044511 | 43 | 244 | 0.0 | 0.0 | 0.00 | 0.00 | 0.00 | 80 | 1005.4 |
| 20260504044011 | 43 | 244 | 0.0 | 0.0 | 0.00 | 0.00 | 0.00 | 79 | 1005.4 |
| 20260504043510 | 43 | 244 | 0.0 | 0.0 | 0.00 | 0.00 | 0.00 | 79 | 1005.4 |
| 20260504043011 | 43 | 244 | 0.0 | 0.0 | 0.00 | 0.00 | 0.00 | 79 | 1005.3 |
| 20260504042744 | 43 | 244 | 0.0 | 0.0 | 0.00 | 0.00 | 0.00 | 79 | 1005.3 |
| 20260504042012 | 44 | 244 | 0.0 | 0.0 | 0.00 | 0.00 | 0.00 | 78 | 1005.3 |
| 20260504041512 | 44 | 244 | 0.0 | 0.0 | 0.00 | 0.00 | 0.00 | 78 | 1005.3 |
| 20260504041358 | 44 | 244 | 0.0 | 0.0 | 0.00 | 0.00 | 0.00 | 78 | 1005.3 |
| 20260504041243 | 44 | 244 | 0.0 | 0.0 | 0.00 | 0.00 | 0.00 | 78 | 1005.2 |
| 20260504040010 | 44 | 244 | 0.0 | 0.0 | 0.00 | 0.00 | 0.00 | 78 | 1005.2 |
| 20260504035502 | 44 | 244 | 0.0 | 0.0 | 0.00 | 0.00 | 0.00 | 77 | 1005.3 |
| 20260504035228 | 44 | 244 | 0.0 | 0.0 | 0.00 | 0.00 | 0.00 | 76 | 1005.3 |
| 20260504034724 | 44 | 244 | 0.0 | 0.0 | 0.00 | 0.00 | 0.00 | 76 | 1005.4 |
| 20260504033945 | 44 | 244 | 0.0 | 0.0 | 0.00 | 0.00 | 0.00 | 76 | 1005.4 |
| 20260504033439 | 44 | 244 | 0.0 | 0.0 | 0.00 | 0.00 | 0.00 | 76 | 1005.3 |
| 20260504033203 | 45 | 244 | 0.0 | 0.0 | 0.00 | 0.00 | 0.00 | 76 | 1005.2 |
| 20260504032427 | 45 | 244 | 0.0 | 0.0 | 0.00 | 0.00 | 0.00 | 75 | 1005.2 |
| 20260504032151 | 45 | 244 | 0.0 | 0.0 | 0.00 | 0.00 | 0.00 | 75 | 1005.1 |
| 20260504031415 | 45 | 244 | 0.0 | 0.0 | 0.00 | 0.00 | 0.00 | 75 | 1005.1 |
| 20260504030908 | 45 | 244 | 0.0 | 0.0 | 0.00 | 0.00 | 0.00 | 74 | 1005.1 |
| 20260504030404 | 46 | 244 | 0.0 | 0.0 | 0.00 | 0.00 | 0.00 | 75 | 1005.1 |
| 20260504025858 | 46 | 244 | 0.0 | 0.0 | 0.00 | 0.00 | 0.00 | 74 | 1005.1 |
| 20260504025351 | 46 | 244 | 0.0 | 0.0 | 0.00 | 0.00 | 0.00 | 73 | 1005.1 |
| 20260504024845 | 46 | 244 | 0.0 | 0.0 | 0.00 | 0.00 | 0.00 | 73 | 1005.1 |
| 20260504024339 | 46 | 244 | 0.0 | 0.0 | 0.00 | 0.00 | 0.00 | 72 | 1004.9 |
| 20260504023833 | 47 | 244 | 0.0 | 0.0 | 0.00 | 0.00 | 0.00 | 71 | 1005.0 |
| 20260504023327 | 47 | 244 | 0.0 | 0.0 | 0.00 | 0.00 | 0.00 | 69 | 1004.9 |
| 20260504022821 | 47 | 244 | 0.0 | 0.0 | 0.00 | 0.00 | 0.00 | 69 | 1004.9 |
| 20260504022315 | 47 | 244 | 0.0 | 0.0 | 0.00 | 0.00 | 0.00 | 68 | 1004.8 |
| 20260504021809 | 48 | 244 | 0.0 | 0.0 | 0.00 | 0.00 | 0.00 | 68 | 1004.8 |
| 20260504021304 | 48 | 244 | 0.0 | 0.0 | 0.00 | 0.00 | 0.00 | 67 | 1004.7 |
| 20260504020757 | 48 | 244 | 0.0 | 0.0 | 0.00 | 0.00 | 0.00 | 68 | 1004.7 |
| 20260504020251 | 49 | 244 | 0.0 | 0.0 | 0.00 | 0.00 | 0.00 | 68 | 1004.7 |
| 20260504015745 | 49 | 244 | 0.0 | 0.0 | 0.00 | 0.00 | 0.00 | 68 | 1004.6 |
| 20260504015238 | 49 | 244 | 0.0 | 0.0 | 0.00 | 0.00 | 0.00 | 67 | 1004.7 |
| 20260504014733 | 49 | 244 | 0.0 | 0.0 | 0.00 | 0.00 | 0.00 | 66 | 1004.6 |
| 20260504014227 | 50 | 244 | 0.0 | 0.0 | 0.00 | 0.00 | 0.00 | 64 | 1004.6 |
| 20260504013720 | 50 | 244 | 0.0 | 0.0 | 0.00 | 0.00 | 0.00 | 62 | 1004.5 |
| 20260504013214 | 51 | 244 | 0.0 | 0.0 | 0.00 | 0.00 | 0.00 | 61 | 1004.4 |
| 20260504012940 | 51 | 244 | 0.0 | 0.0 | 0.00 | 0.00 | 0.00 | 60 | 1004.4 |
| 20260504012202 | 51 | 244 | 0.0 | 0.0 | 0.00 | 0.00 | 0.00 | 58 | 1004.4 |
| 20260504011656 | 52 | 244 | 0.0 | 0.0 | 0.00 | 0.00 | 0.00 | 56 | 1004.4 |
| 20260504011152 | 52 | 244 | 0.0 | 0.0 | 0.00 | 0.00 | 0.00 | 57 | 1004.3 |
| 20260504010644 | 53 | 244 | 0.0 | 0.0 | 0.00 | 0.00 | 0.00 | 58 | 1004.4 |
| 20260504010139 | 53 | 244 | 0.0 | 0.0 | 0.00 | 0.00 | 0.00 | 55 | 1004.4 |
| 20260504005633 | 53 | 244 | 0.0 | 0.0 | 0.00 | 0.00 | 0.00 | 56 | 1004.4 |
| 20260504005127 | 54 | 244 | 0.0 | 0.0 | 0.00 | 0.00 | 0.00 | 53 | 1004.3 |
| 20260504004621 | 54 | 244 | 0.0 | 0.0 | 0.00 | 0.00 | 0.00 | 53 | 1004.2 |
| 20260504004114 | 55 | 244 | 0.0 | 0.0 | 0.00 | 0.00 | 0.00 | 51 | 1004.2 |
| 20260504003608 | 55 | 244 | 0.0 | 0.0 | 0.00 | 0.00 | 0.00 | 49 | 1004.2 |
| 20260504003334 | 56 | 244 | 0.0 | 0.0 | 0.00 | 0.00 | 0.00 | 47 | 1004.1 |
| 20260504002829 | 56 | 244 | 0.0 | 0.0 | 0.00 | 0.00 | 0.00 | 47 | 1004.1 |
| 20260504002322 | 56 | 244 | 0.0 | 0.0 | 0.00 | 0.00 | 0.00 | 46 | 1004.1 |
| 20260504001545 | 57 | 244 | 0.0 | 0.0 | 0.00 | 0.00 | 0.00 | 45 | 1004.1 |
| 20260504001310 | 57 | 244 | 0.0 | 1.0 | 0.00 | 0.00 | 0.00 | 45 | 1004.0 |
| 20260504000759 | 58 | 244 | 0.0 | 2.0 | 0.00 | 0.00 | 0.00 | 43 | 1003.9 |
| 20260504000254 | 58 | 244 | 0.0 | 2.0 | 0.00 | 0.00 | 0.00 | 40 | 1003.9 |
| 20260503235517 | 59 | 244 | 0.0 | 1.0 | 0.00 | 0.00 | 0.00 | 41 | 1004.0 |
| 20260503235011 | 59 | 244 | 0.0 | 2.0 | 0.00 | 0.00 | 0.00 | 41 | 1003.8 |
| 20260503234505 | 59 | 132 | 0.0 | 2.0 | 0.00 | 0.00 | 0.00 | 40 | 1003.8 |
| 20260503233959 | 60 | 132 | 0.0 | 2.0 | 0.00 | 0.00 | 0.00 | 40 | 1003.8 |
| 20260503233453 | 60 | 132 | 0.0 | 2.0 | 0.00 | 0.00 | 0.00 | 36 | 1003.9 |
| 20260503232946 | 60 | 132 | 0.0 | 2.0 | 0.00 | 0.00 | 0.00 | 38 | 1003.7 |
| 20260503232441 | 60 | 132 | 1.0 | 2.0 | 0.00 | 0.00 | 0.00 | 38 | 1003.8 |
| 20260503231944 | 60 | 132 | 1.0 | 3.0 | 0.00 | 0.00 | 0.00 | 38 | 1003.7 |
| 20260503231939 | 61 | 132 | 0.0 | 3.0 | 0.00 | 0.00 | 0.00 | 37 | 1003.6 |
| 20260503230938 | 61 | 125 | 0.0 | 3.0 | 0.00 | 0.00 | 0.00 | 38 | 1003.5 |
| 20260503230437 | 61 | 125 | 0.0 | 3.0 | 0.00 | 0.00 | 0.00 | 39 | 1003.6 |
| 20260503225937 | 61 | 125 | 1.0 | 3.0 | 0.00 | 0.00 | 0.00 | 38 | 1003.8 |
| 20260503225438 | 61 | 197 | 1.0 | 4.0 | 0.00 | 0.00 | 0.00 | 36 | 1003.6 |
| 20260503225207 | 61 | 196 | 1.0 | 4.0 | 0.00 | 0.00 | 0.00 | 36 | 1003.7 |
| 20260503224707 | 61 | 92 | 1.0 | 3.0 | 0.00 | 0.00 | 0.00 | 36 | 1003.7 |
| 20260503224207 | 62 | 92 | 1.0 | 4.0 | 0.00 | 0.00 | 0.00 | 38 | 1003.6 |
| 20260503223436 | 62 | 198 | 1.0 | 4.0 | 0.00 | 0.00 | 0.00 | 34 | 1003.6 |
| 20260503223208 | 62 | 194 | 1.0 | 4.0 | 0.00 | 0.00 | 0.00 | 35 | 1003.6 |
| 20260503222434 | 62 | 190 | 0.0 | 3.0 | 0.00 | 0.00 | 0.00 | 35 | 1003.6 |
| 20260503221933 | 62 | 190 | 1.0 | 3.0 | 0.00 | 0.00 | 0.00 | 36 | 1003.7 |
| 20260503221434 | 62 | 190 | 1.0 | 3.0 | 0.00 | 0.00 | 0.00 | 35 | 1003.7 |
| 20260503220936 | 62 | 190 | 1.0 | 4.0 | 0.00 | 0.00 | 0.00 | 35 | 1003.7 |
| 20260503220434 | 62 | 190 | 1.0 | 6.0 | 0.00 | 0.00 | 0.00 | 37 | 1003.8 |
| 20260503215935 | 62 | 55 | 2.0 | 6.0 | 0.00 | 0.00 | 0.00 | 35 | 1003.7 |
| 20260503215431 | 62 | 215 | 2.0 | 6.0 | 0.00 | 0.00 | 0.00 | 34 | 1003.6 |
| 20260503214931 | 62 | 215 | 1.0 | 6.0 | 0.00 | 0.00 | 0.00 | 33 | 1003.7 |
| 20260503214430 | 62 | 198 | 1.0 | 6.0 | 0.00 | 0.00 | 0.00 | 35 | 1003.8 |
| 20260503213930 | 62 | 105 | 2.0 | 11.0 | 0.00 | 0.00 | 0.00 | 33 | 1003.9 |
| 20260503213430 | 62 | 219 | 2.0 | 11.0 | 0.00 | 0.00 | 0.00 | 34 | 1003.8 |
| 20260503212929 | 62 | 214 | 2.0 | 6.0 | 0.00 | 0.00 | 0.00 | 34 | 1003.8 |
| 20260503212430 | 61 | 214 | 2.0 | 6.0 | 0.00 | 0.00 | 0.00 | 36 | 1003.9 |
| 20260503211929 | 61 | 210 | 2.0 | 6.0 | 0.00 | 0.00 | 0.00 | 34 | 1003.9 |
| 20260503211702 | 61 | 207 | 3.0 | 7.0 | 0.00 | 0.00 | 0.00 | 37 | 1003.9 |
| 20260503210930 | 61 | 213 | 2.0 | 7.0 | 0.00 | 0.00 | 0.00 | 35 | 1003.8 |
| 20260503210435 | 61 | 57 | 2.0 | 6.0 | 0.00 | 0.00 | 0.00 | 34 | 1003.8 |
| 20260503210430 | 61 | 213 | 2.0 | 6.0 | 0.00 | 0.00 | 0.00 | 34 | 1003.8 |
| 20260503205431 | 61 | 83 | 2.0 | 5.0 | 0.00 | 0.00 | 0.00 | 36 | 1003.9 |
| 20260503204929 | 61 | 188 | 2.0 | 5.0 | 0.00 | 0.00 | 0.00 | 37 | 1004.1 |
| 20260503204431 | 61 | 220 | 1.0 | 4.0 | 0.00 | 0.00 | 0.00 | 34 | 1004.1 |
| 20260503203930 | 61 | 35 | 2.0 | 5.0 | 0.00 | 0.00 | 0.00 | 38 | 1003.9 |
| 20260503203430 | 61 | 41 | 2.0 | 5.0 | 0.00 | 0.00 | 0.00 | 36 | 1004.0 |
| 20260503202929 | 61 | 5 | 2.0 | 5.0 | 0.00 | 0.00 | 0.00 | 35 | 1003.9 |
| 20260503202425 | 61 | 27 | 2.0 | 6.0 | 0.00 | 0.00 | 0.00 | 38 | 1004.0 |
| 20260503201917 | 61 | 215 | 2.0 | 6.0 | 0.00 | 0.00 | 0.00 | 38 | 1004.2 |
| 20260503201412 | 61 | 194 | 1.0 | 4.0 | 0.00 | 0.00 | 0.00 | 41 | 1004.2 |
| 20260503201407 | 61 | 16 | 2.0 | 9.0 | 0.00 | 0.00 | 0.00 | 37 | 1004.3 |
| 20260503200630 | 61 | 213 | 2.0 | 9.0 | 0.00 | 0.00 | 0.00 | 37 | 1004.3 |
| 20260503195854 | 61 | 213 | 2.0 | 7.0 | 0.00 | 0.00 | 0.00 | 37 | 1004.4 |
| 20260503195348 | 61 | 210 | 2.0 | 7.0 | 0.00 | 0.00 | 0.00 | 38 | 1004.6 |
| 20260503194842 | 61 | 213 | 2.0 | 7.0 | 0.00 | 0.00 | 0.00 | 40 | 1004.6 |
| 20260503194335 | 60 | 190 | 3.0 | 7.0 | 0.00 | 0.00 | 0.00 | 41 | 1004.6 |
| 20260503193829 | 60 | 214 | 2.0 | 6.0 | 0.00 | 0.00 | 0.00 | 41 | 1004.6 |
| 20260503193324 | 60 | 215 | 2.0 | 6.0 | 0.00 | 0.00 | 0.00 | 42 | 1004.8 |
| 20260503192818 | 60 | 215 | 2.0 | 10.0 | 0.00 | 0.00 | 0.00 | 40 | 1004.9 |
| 20260503192540 | 60 | 215 | 2.0 | 8.0 | 0.00 | 0.00 | 0.00 | 40 | 1005.2 |
| 20260503192414 | 60 | 214 | 3.0 | 10.0 | 0.00 | 0.00 | 0.00 | 39 | 1005.0 |
| 20260503191301 | 60 | 216 | 2.0 | 8.0 | 0.00 | 0.00 | 0.00 | 43 | 1005.1 |
| 20260503191027 | 60 | 211 | 2.0 | 6.0 | 0.00 | 0.00 | 0.00 | 42 | 1005.0 |
| 20260503190249 | 60 | 37 | 2.0 | 6.0 | 0.00 | 0.00 | 0.00 | 39 | 1005.1 |
| 20260503185742 | 59 | 157 | 2.0 | 6.0 | 0.00 | 0.00 | 0.00 | 43 | 1005.3 |
| 20260503185510 | 59 | 215 | 3.0 | 6.0 | 0.00 | 0.00 | 0.00 | 42 | 1005.3 |
| 20260503184731 | 59 | 213 | 2.0 | 8.0 | 0.00 | 0.00 | 0.00 | 41 | 1005.3 |
| 20260503184225 | 59 | 213 | 2.0 | 8.0 | 0.00 | 0.00 | 0.00 | 46 | 1005.4 |
| 20260503183718 | 58 | 184 | 2.0 | 6.0 | 0.00 | 0.00 | 0.00 | 42 | 1005.5 |
| 20260503183213 | 58 | 24 | 2.0 | 6.0 | 0.00 | 0.00 | 0.00 | 42 | 1005.5 |
| 20260503182708 | 58 | 215 | 2.0 | 7.0 | 0.00 | 0.00 | 0.00 | 43 | 1005.7 |
| 20260503182201 | 58 | 217 | 2.0 | 7.0 | 0.00 | 0.00 | 0.00 | 41 | 1005.8 |
| 20260503181654 | 58 | 210 | 3.0 | 7.0 | 0.00 | 0.00 | 0.00 | 45 | 1005.7 |
| 20260503181419 | 58 | 214 | 3.0 | 7.0 | 0.00 | 0.00 | 0.00 | 43 | 1005.6 |
| 20260503180642 | 58 | 211 | 2.0 | 6.0 | 0.00 | 0.00 | 0.00 | 44 | 1005.7 |
| 20260503180136 | 58 | 219 | 2.0 | 10.0 | 0.00 | 0.00 | 0.00 | 45 | 1005.7 |
| 20260503175631 | 57 | 216 | 2.0 | 10.0 | 0.00 | 0.00 | 0.00 | 47 | 1005.8 |
| 20260503175357 | 57 | 210 | 2.0 | 6.0 | 0.00 | 0.00 | 0.00 | 45 | 1005.8 |
| 20260503174619 | 57 | 211 | 2.0 | 6.0 | 0.00 | 0.00 | 0.00 | 43 | 1006.0 |
| 20260503174113 | 58 | 213 | 2.0 | 6.0 | 0.00 | 0.00 | 0.00 | 41 | 1006.1 |
| 20260503173607 | 57 | 155 | 2.0 | 6.0 | 0.00 | 0.00 | 0.00 | 50 | 1006.0 |
| 20260503173101 | 57 | 211 | 2.0 | 6.0 | 0.00 | 0.00 | 0.00 | 44 | 1005.9 |
| 20260503172556 | 56 | 211 | 2.0 | 6.0 | 0.00 | 0.00 | 0.00 | 51 | 1005.9 |
| 20260503172049 | 56 | 212 | 1.0 | 6.0 | 0.00 | 0.00 | 0.00 | 43 | 1006.1 |
| 20260503171542 | 56 | 29 | 2.0 | 5.0 | 0.00 | 0.00 | 0.00 | 43 | 1006.1 |
| 20260503171037 | 56 | 22 | 2.0 | 6.0 | 0.00 | 0.00 | 0.00 | 44 | 1006.0 |
| 20260503170802 | 56 | 13 | 2.0 | 7.0 | 0.00 | 0.00 | 0.00 | 44 | 1006.2 |